Roxane — 9H9917 — position and weather

sailwx.info

Track history (hours):
 
Tides and Currents Weather Stations Pressure Air Temp Water Temp Dewpoint Dewpoint Depression Visibility Wind Speed Wind Dir Waves Ship Positions

Roxane

Last reported at 2017-Jul-19 16:39 UTC. Time now 2017-Jul-23 08:37 UTC.
Position N 42°21' E 008°33'.

Length 46 m.

Type: Sailing vessel. MMSI: 248548000.

Date/timePositionNaut miles runAvg speedWind from/ knotsBaromVisibWave heightAir tempDewpointWater temp
2017-Jul-19 16:39N 42°21' E 008°33'110.2
2017-Jul-19 16:30N 42°22' E 008°32'15 1.9
2017-Jul-19 08:46N 42°34' E 008°44'0 0.0
2017-Jul-19 08:22N 42°34' E 008°44'0 0.0
2017-Jul-19 07:22N 42°34' E 008°44'0 0.2
2017-Jul-19 06:46N 42°34' E 008°44'14 8.9
2017-Jul-19 05:12N 42°42' E 008°60'2 9.1
2017-Jul-19 04:59N 42°43' E 009°02'4 0.7
2017-Jul-18 22:14N 42°44' E 009°08'0 0.0
2017-Jul-18 21:56N 42°44' E 009°08'0 0.0
2017-Jul-18 21:29N 42°44' E 009°08'0 0.0
2017-Jul-18 20:53N 42°44' E 009°08'0 0.0
2017-Jul-18 19:41N 42°44' E 009°08'15 0.3
2017-Jul-16 18:31N 42°57' E 009°19'0 9.6
2017-Jul-16 18:28N 42°57' E 009°19'2810.3
2017-Jul-16 15:44N 43°24' E 009°31'310.4
2017-Jul-16 15:26N 43°27' E 009°33'510.5
2017-Jul-16 15:00N 43°31' E 009°35'610.5
2017-Jul-16 14:28N 43°36' E 009°37'610.6
2017-Jul-16 13:57N 43°41' E 009°40'510.7
2017-Jul-16 13:29N 43°46' E 009°43'510.7
2017-Jul-16 13:01N 43°50' E 009°46'510.7
2017-Jul-16 12:31N 43°55' E 009°49'510.0
2017-Jul-16 12:00N 43°60' E 009°52'3 5.6
2017-Jul-16 11:30N 44°03' E 009°52'0 0.7
2017-Jul-16 10:58N 44°03' E 009°51'0 0.0
2017-Jul-16 10:28N 44°03' E 009°51'0 0.3
2017-Jul-16 10:00N 44°03' E 009°52'1 1.2
2017-Jul-16 09:29N 44°02' E 009°52'3 7.1
2017-Jul-16 09:00N 44°03' E 009°47'1 2.0
2017-Jul-16 08:30N 44°02' E 009°48'5 9.9
2017-Jul-16 07:59N 44°04' E 009°42'5 9.8
2017-Jul-16 07:30N 44°07' E 009°36'5 9.7
2017-Jul-16 07:00N 44°10' E 009°31'5 9.5
2017-Jul-16 06:30N 44°12' E 009°25'5 9.6
2017-Jul-16 06:01N 44°15' E 009°20'  
2017-Jul-13 15:26N 44°18' E 009°14'4 8.6
2017-Jul-13 15:00N 44°15' E 009°15'3 6.9
2017-Jul-13 14:30N 44°11' E 009°16'5 9.3
2017-Jul-13 14:00N 44°07' E 009°17'5 9.3
2017-Jul-13 13:30N 44°02' E 009°18'5 9.2
2017-Jul-13 13:00N 43°58' E 009°19'5 9.3
2017-Jul-13 12:30N 43°53' E 009°20'5 9.3
2017-Jul-13 12:00N 43°48' E 009°22'5 9.3
2017-Jul-13 11:30N 43°44' E 009°23'5 9.1
2017-Jul-13 11:00N 43°39' E 009°24'4 9.0
2017-Jul-13 10:30N 43°35' E 009°25'5 9.0
2017-Jul-13 10:00N 43°31' E 009°27'5 9.1
2017-Jul-13 09:30N 43°26' E 009°28'139 3.6
2017-Jul-11 18:58N 41°07' E 009°33'7 1.6
2017-Jul-11 14:43N 41°14' E 009°30'2 7.5
2017-Jul-11 14:29N 41°15' E 009°28'2 0.6
2017-Jul-11 11:32N 41°14' E 009°27'  
Track history (hours):
 
Tides and Currents Weather Stations Pressure Air Temp Water Temp Dewpoint Dewpoint Depression Visibility Wind Speed Wind Dir Waves Ship Positions

Roxane

Last reported at 2017-Jul-19 16:39 UTC. Time now 2017-Jul-23 08:37 UTC.
Position N 42°21' E 008°33'.

Length 46 m.

Type: Sailing vessel. MMSI: 248548000.

Date/timePositionNaut miles runAvg speedWind from/ knotsBaromVisibWave heightAir tempDewpointWater temp
2017-Jul-19 16:39N 42°21' E 008°33'110.2
2017-Jul-19 16:30N 42°22' E 008°32'15 1.9
2017-Jul-19 08:46N 42°34' E 008°44'0 0.0
2017-Jul-19 08:22N 42°34' E 008°44'0 0.0
2017-Jul-19 07:22N 42°34' E 008°44'0 0.2
2017-Jul-19 06:46N 42°34' E 008°44'14 8.9
2017-Jul-19 05:12N 42°42' E 008°60'2 9.1
2017-Jul-19 04:59N 42°43' E 009°02'4 0.7
2017-Jul-18 22:14N 42°44' E 009°08'0 0.0
2017-Jul-18 21:56N 42°44' E 009°08'0 0.0
2017-Jul-18 21:29N 42°44' E 009°08'0 0.0
2017-Jul-18 20:53N 42°44' E 009°08'0 0.0
2017-Jul-18 19:41N 42°44' E 009°08'15 0.3
2017-Jul-16 18:31N 42°57' E 009°19'0 9.6
2017-Jul-16 18:28N 42°57' E 009°19'2810.3
2017-Jul-16 15:44N 43°24' E 009°31'310.4
2017-Jul-16 15:26N 43°27' E 009°33'510.5
2017-Jul-16 15:00N 43°31' E 009°35'610.5
2017-Jul-16 14:28N 43°36' E 009°37'610.6
2017-Jul-16 13:57N 43°41' E 009°40'510.7
2017-Jul-16 13:29N 43°46' E 009°43'510.7
2017-Jul-16 13:01N 43°50' E 009°46'510.7
2017-Jul-16 12:31N 43°55' E 009°49'510.0
2017-Jul-16 12:00N 43°60' E 009°52'3 5.6
2017-Jul-16 11:30N 44°03' E 009°52'0 0.7
2017-Jul-16 10:58N 44°03' E 009°51'0 0.0
2017-Jul-16 10:28N 44°03' E 009°51'0 0.3
2017-Jul-16 10:00N 44°03' E 009°52'1 1.2
2017-Jul-16 09:29N 44°02' E 009°52'3 7.1
2017-Jul-16 09:00N 44°03' E 009°47'1 2.0
2017-Jul-16 08:30N 44°02' E 009°48'5 9.9
2017-Jul-16 07:59N 44°04' E 009°42'5 9.8
2017-Jul-16 07:30N 44°07' E 009°36'5 9.7
2017-Jul-16 07:00N 44°10' E 009°31'5 9.5
2017-Jul-16 06:30N 44°12' E 009°25'5 9.6
2017-Jul-16 06:01N 44°15' E 009°20'  
2017-Jul-13 15:26N 44°18' E 009°14'4 8.6
2017-Jul-13 15:00N 44°15' E 009°15'3 6.9
2017-Jul-13 14:30N 44°11' E 009°16'5 9.3
2017-Jul-13 14:00N 44°07' E 009°17'5 9.3
2017-Jul-13 13:30N 44°02' E 009°18'5 9.2
2017-Jul-13 13:00N 43°58' E 009°19'5 9.3
2017-Jul-13 12:30N 43°53' E 009°20'5 9.3
2017-Jul-13 12:00N 43°48' E 009°22'5 9.3
2017-Jul-13 11:30N 43°44' E 009°23'5 9.1
2017-Jul-13 11:00N 43°39' E 009°24'4 9.0
2017-Jul-13 10:30N 43°35' E 009°25'5 9.0
2017-Jul-13 10:00N 43°31' E 009°27'5 9.1
2017-Jul-13 09:30N 43°26' E 009°28'139 3.6
2017-Jul-11 18:58N 41°07' E 009°33'7 1.6
2017-Jul-11 14:43N 41°14' E 009°30'2 7.5
2017-Jul-11 14:29N 41°15' E 009°28'2 0.6
2017-Jul-11 11:32N 41°14' E 009°27'  

Dump ship's entire track history